Time;durP1;ratioP1;P1;durP2;ratioP2;P2;SDS_P1;SDS_P2;PMS_P1;PMS_P2;Temp;Humidity;BMP_temperature;BMP_pressure;BME280_temperature;BME280_humidity;BME280_pressure;Samples;Min_cycle;Max_cycle;Signal;HPM_P1;HPM_P2
2022/09/29 00:00:41;;;;;;;9.88;3.88;;;;;;;;;;6162100;28;20132;-82
2022/09/29 00:03:42;;;;;;;7.93;3.67;;;;;;;;;;6177510;28;20042;-82
2022/09/29 00:06:44;;;;;;;31.27;4.93;;;;;;;;;;6162710;28;20042;-82
2022/09/29 00:09:46;;;;;;;18.95;4.18;;;;;;;;;;6165135;28;20052;-81
2022/09/29 00:12:47;;;;;;;14.50;4.10;;;;;;;;;;6177980;28;20053;-82
2022/09/29 00:16:00;;;;;;;16.63;4.97;;;;;;;;;;6176979;28;20046;-82
2022/09/29 00:19:01;;;;;;;10.82;3.75;;;;;;;;;;6162657;28;20049;-82
2022/09/29 00:22:03;;;;;;;31.17;5.20;;;;;;;;;;6161513;28;20052;-82
2022/09/29 00:25:05;;;;;;;31.20;5.22;;;;;;;;;;6155943;28;20038;-82
2022/09/29 00:28:07;;;;;;;30.52;4.20;;;;;;;;;;6179300;28;20074;-82
2022/09/29 00:31:10;;;;;;;18.50;3.85;;;;;;;;;;6161694;28;20058;-82
2022/09/29 00:34:12;;;;;;;19.58;4.40;;;;;;;;;;6177462;28;20054;-82
2022/09/29 00:37:13;;;;;;;37.25;5.60;;;;;;;;;;6146883;28;20074;-82
2022/09/29 00:40:15;;;;;;;26.80;4.32;;;;;;;;;;6190066;28;20109;-82
2022/09/29 00:43:21;;;;;;;11.73;5.65;;;;;;;;;;6200789;28;20074;-82
2022/09/29 00:46:36;;;;;;;16.90;4.22;;;;;;;;;;6149271;28;20108;-82
2022/09/29 00:49:44;;;;;;;42.90;4.63;;;;;;;;;;6163547;28;20058;-82
2022/09/29 00:52:55;;;;;;;26.20;3.47;;;;;;;;;;6183368;28;20052;-82
2022/09/29 00:55:59;;;;;;;13.00;4.88;;;;;;;;;;6177635;28;20054;-82
2022/09/29 00:59:06;;;;;;;12.13;3.75;;;;;;;;;;6167803;28;20066;-82
2022/09/29 01:02:07;;;;;;;43.85;5.05;;;;;;;;;;6178655;28;20046;-82
2022/09/29 01:05:15;;;;;;;43.03;6.82;;;;;;;;;;6166179;28;20050;-82
2022/09/29 01:08:41;;;;;;;30.58;4.20;;;;;;;;;;6162675;28;20056;-82
2022/09/29 01:11:43;;;;;;;30.08;4.68;;;;;;;;;;6167934;28;20119;-82
2022/09/29 01:14:46;;;;;;;38.10;4.57;;;;;;;;;;6151892;28;20745;-82
2022/09/29 01:17:48;;;;;;;29.38;4.55;;;;;;;;;;6163932;28;20046;-82
2022/09/29 01:21:04;;;;;;;30.17;4.35;;;;;;;;;;6166696;28;20144;-81
2022/09/29 01:24:18;;;;;;;22.65;5.57;;;;;;;;;;6170692;28;20050;-82
2022/09/29 01:27:28;;;;;;;26.13;4.80;;;;;;;;;;6184218;28;20165;-82
2022/09/29 01:30:48;;;;;;;18.00;4.93;;;;;;;;;;6170421;28;20046;-82
2022/09/29 01:34:04;;;;;;;9.80;3.72;;;;;;;;;;6166174;28;20078;-82
2022/09/29 01:37:32;;;;;;;13.38;3.85;;;;;;;;;;6152564;28;20256;-82
2022/09/29 01:40:57;;;;;;;24.42;4.65;;;;;;;;;;6181183;28;20068;-82
2022/09/29 01:44:17;;;;;;;9.15;3.70;;;;;;;;;;6164284;28;20046;-82
2022/09/29 01:47:38;;;;;;;15.15;4.40;;;;;;;;;;6169398;28;20728;-83
2022/09/29 01:50:49;;;;;;;17.75;4.07;;;;;;;;;;6188906;28;20586;-83
2022/09/29 01:53:54;;;;;;;18.45;4.07;;;;;;;;;;6172199;28;20047;-83
2022/09/29 01:57:09;;;;;;;11.32;3.78;;;;;;;;;;6174074;28;20042;-83
2022/09/29 02:00:13;;;;;;;33.33;5.78;;;;;;;;;;6182577;28;20482;-83
2022/09/29 02:03:25;;;;;;;23.98;5.22;;;;;;;;;;6171037;28;20042;-83
2022/09/29 02:06:36;;;;;;;31.58;5.18;;;;;;;;;;6166210;28;20405;-82
2022/09/29 02:09:44;;;;;;;50.53;5.15;;;;;;;;;;6172369;28;20717;-82
2022/09/29 02:12:47;;;;;;;51.30;5.10;;;;;;;;;;6184507;28;20651;-81
2022/09/29 02:15:53;;;;;;;8.27;3.55;;;;;;;;;;6183443;28;20235;-82
2022/09/29 02:19:23;;;;;;;36.72;5.18;;;;;;;;;;6181133;28;20047;-81
2022/09/29 02:22:25;;;;;;;29.25;4.93;;;;;;;;;;6166269;28;20252;-82
2022/09/29 02:25:27;;;;;;;40.67;4.35;;;;;;;;;;6183590;28;20038;-82
2022/09/29 02:28:29;;;;;;;18.05;3.63;;;;;;;;;;6170241;28;20050;-81
2022/09/29 02:31:32;;;;;;;25.40;4.25;;;;;;;;;;6181540;28;20042;-82
2022/09/29 02:34:40;;;;;;;21.60;3.90;;;;;;;;;;6168670;28;20062;-82
2022/09/29 02:37:56;;;;;;;5.65;3.00;;;;;;;;;;6172242;28;20450;-82
2022/09/29 02:41:11;;;;;;;10.02;3.30;;;;;;;;;;6169226;28;20651;-82
2022/09/29 02:45:10;;;;;;;11.25;3.55;;;;;;;;;;6170082;28;20069;-82
2022/09/29 02:48:47;;;;;;;24.80;4.15;;;;;;;;;;6047530;29;20099;-82
2022/09/29 02:52:07;;;;;;;13.55;2.80;;;;;;;;;;6080343;28;20049;-82
2022/09/29 02:55:27;;;;;;;60.25;5.00;;;;;;;;;;6182110;28;20501;-82
2022/09/29 02:58:35;;;;;;;40.58;4.25;;;;;;;;;;6170111;28;20387;-81
2022/09/29 03:01:48;;;;;;;30.63;3.90;;;;;;;;;;6168969;28;20116;-82
2022/09/29 03:04:50;;;;;;;81.30;6.32;;;;;;;;;;6170454;28;20050;-82
2022/09/29 03:07:51;;;;;;;51.92;5.00;;;;;;;;;;6154929;28;20057;-82
2022/09/29 03:10:53;;;;;;;29.02;5.05;;;;;;;;;;6167703;28;20125;-81
2022/09/29 03:13:54;;;;;;;25.73;3.80;;;;;;;;;;6170921;28;20046;-82
2022/09/29 03:16:56;;;;;;;14.05;3.50;;;;;;;;;;6167303;28;20050;-82
2022/09/29 03:19:58;;;;;;;18.77;3.10;;;;;;;;;;6188268;28;20065;-82
2022/09/29 03:22:59;;;;;;;37.65;3.70;;;;;;;;;;6185484;28;20054;-82
2022/09/29 03:26:01;;;;;;;11.93;2.85;;;;;;;;;;6184058;28;20340;-82
2022/09/29 03:29:03;;;;;;;32.05;4.10;;;;;;;;;;6155238;28;20050;-82
2022/09/29 03:32:04;;;;;;;64.00;4.55;;;;;;;;;;6168776;28;20038;-81
2022/09/29 03:35:07;;;;;;;45.00;4.05;;;;;;;;;;6184948;28;20059;-82
2022/09/29 03:38:08;;;;;;;31.80;4.72;;;;;;;;;;6165381;28;20177;-82
2022/09/29 03:41:10;;;;;;;41.30;3.38;;;;;;;;;;6182506;28;20185;-83
2022/09/29 03:44:12;;;;;;;6.55;2.42;;;;;;;;;;6144592;28;20058;-83
2022/09/29 03:47:13;;;;;;;43.10;7.40;;;;;;;;;;6183403;28;20050;-82
2022/09/29 03:50:15;;;;;;;8.80;2.45;;;;;;;;;;6154751;28;20731;-82
2022/09/29 03:53:17;;;;;;;17.75;2.80;;;;;;;;;;6170351;28;20061;-82
2022/09/29 03:56:18;;;;;;;12.80;2.88;;;;;;;;;;6184772;28;20070;-82
2022/09/29 03:59:20;;;;;;;19.17;2.60;;;;;;;;;;6183948;28;20047;-83
2022/09/29 04:02:22;;;;;;;19.05;2.55;;;;;;;;;;6153069;28;20601;-82
2022/09/29 04:05:24;;;;;;;13.57;2.83;;;;;;;;;;6168830;28;20065;-83
2022/09/29 04:08:25;;;;;;;14.18;3.28;;;;;;;;;;6153253;28;20139;-83
2022/09/29 04:11:27;;;;;;;8.85;2.38;;;;;;;;;;6155597;28;20053;-83
2022/09/29 04:14:31;;;;;;;24.90;3.03;;;;;;;;;;6170271;28;20056;-82
2022/09/29 04:17:33;;;;;;;16.92;3.22;;;;;;;;;;6168067;28;20097;-82
2022/09/29 04:20:36;;;;;;;21.65;3.20;;;;;;;;;;6168073;28;20050;-82
2022/09/29 04:23:38;;;;;;;15.60;3.78;;;;;;;;;;6166258;28;21496;-82
2022/09/29 04:26:39;;;;;;;13.93;5.05;;;;;;;;;;6185625;28;20041;-83
2022/09/29 04:29:43;;;;;;;22.20;5.07;;;;;;;;;;6182957;28;20178;-83
2022/09/29 04:32:45;;;;;;;30.92;4.65;;;;;;;;;;6182334;28;20050;-83
2022/09/29 04:35:47;;;;;;;46.38;4.75;;;;;;;;;;6175171;28;20116;-82
2022/09/29 04:38:50;;;;;;;37.63;4.70;;;;;;;;;;6151844;28;20148;-83
2022/09/29 04:41:52;;;;;;;36.10;3.72;;;;;;;;;;6160031;28;20050;-83
2022/09/29 04:44:53;;;;;;;8.85;3.13;;;;;;;;;;6159124;28;20185;-82
2022/09/29 04:47:55;;;;;;;36.50;3.55;;;;;;;;;;6137686;28;20109;-82
2022/09/29 04:50:57;;;;;;;53.13;4.68;;;;;;;;;;6181776;28;20050;-82
2022/09/29 04:53:58;;;;;;;30.23;4.22;;;;;;;;;;6166223;28;20095;-82
2022/09/29 04:57:00;;;;;;;10.55;3.20;;;;;;;;;;6155198;28;20086;-81
2022/09/29 05:00:03;;;;;;;21.83;3.72;;;;;;;;;;6169456;28;20868;-82
2022/09/29 05:03:05;;;;;;;34.50;7.15;;;;;;;;;;6182686;28;20051;-82
2022/09/29 05:06:08;;;;;;;24.15;5.68;;;;;;;;;;6156657;28;20046;-82
2022/09/29 05:09:11;;;;;;;40.92;6.20;;;;;;;;;;6168751;28;20129;-82
2022/09/29 05:12:12;;;;;;;10.43;4.43;;;;;;;;;;6190688;28;20061;-82
2022/09/29 05:15:16;;;;;;;9.52;3.03;;;;;;;;;;6186129;28;20042;-82
2022/09/29 05:18:20;;;;;;;20.55;3.72;;;;;;;;;;6167505;28;20046;-81
2022/09/29 05:21:22;;;;;;;14.70;3.22;;;;;;;;;;6154388;28;20166;-82
2022/09/29 05:24:29;;;;;;;8.68;3.10;;;;;;;;;;6170785;28;20050;-83
2022/09/29 05:27:30;;;;;;;15.88;4.07;;;;;;;;;;6188104;28;20133;-83
2022/09/29 05:30:32;;;;;;;34.90;4.57;;;;;;;;;;6172788;28;20121;-83
2022/09/29 05:33:35;;;;;;;8.75;5.07;;;;;;;;;;6154342;28;20179;-83
2022/09/29 05:36:36;;;;;;;38.90;4.68;;;;;;;;;;6187428;28;20049;-84
2022/09/29 05:39:38;;;;;;;37.72;4.97;;;;;;;;;;6183853;28;20060;-83
2022/09/29 05:42:40;;;;;;;26.73;3.63;;;;;;;;;;6164074;28;20054;-83
2022/09/29 05:45:42;;;;;;;8.43;4.18;;;;;;;;;;6187758;28;20068;-83
2022/09/29 05:48:45;;;;;;;12.73;3.35;;;;;;;;;;6173378;28;20046;-82
2022/09/29 05:51:46;;;;;;;11.48;4.20;;;;;;;;;;6186894;28;20102;-83
2022/09/29 05:54:50;;;;;;;10.13;3.28;;;;;;;;;;6159344;28;20066;-83
2022/09/29 05:57:51;;;;;;;35.72;4.30;;;;;;;;;;6172174;28;20051;-83
2022/09/29 06:00:53;;;;;;;20.90;3.30;;;;;;;;;;6171765;28;20064;-83
2022/09/29 06:03:55;;;;;;;7.78;3.40;;;;;;;;;;6169818;28;20755;-83
2022/09/29 06:06:57;;;;;;;9.77;4.13;;;;;;;;;;6174611;28;20042;-83
2022/09/29 06:09:59;;;;;;;8.70;3.65;;;;;;;;;;6156443;28;20045;-83
2022/09/29 06:13:02;;;;;;;14.40;3.47;;;;;;;;;;6171453;28;20050;-83
2022/09/29 06:16:04;;;;;;;20.02;3.83;;;;;;;;;;6161331;28;20046;-83
2022/09/29 06:19:06;;;;;;;14.90;3.55;;;;;;;;;;6173824;28;20135;-83
2022/09/29 06:22:07;;;;;;;28.55;5.13;;;;;;;;;;6188311;28;20042;-83
2022/09/29 06:25:09;;;;;;;38.90;5.35;;;;;;;;;;6174376;28;20170;-83
2022/09/29 06:28:10;;;;;;;13.40;3.45;;;;;;;;;;6190025;28;20133;-83
2022/09/29 06:31:15;;;;;;;22.42;4.50;;;;;;;;;;6173706;28;20053;-83
2022/09/29 06:34:17;;;;;;;12.80;4.50;;;;;;;;;;6177288;28;20050;-83
2022/09/29 06:37:34;;;;;;;7.75;4.00;;;;;;;;;;6189667;28;20050;-83
2022/09/29 06:40:35;;;;;;;7.95;3.42;;;;;;;;;;6173367;28;20070;-83
2022/09/29 06:43:37;;;;;;;21.08;4.72;;;;;;;;;;6157207;28;20137;-83
2022/09/29 06:46:39;;;;;;;8.60;4.03;;;;;;;;;;6187333;28;20046;-83
2022/09/29 06:49:41;;;;;;;9.05;4.30;;;;;;;;;;6172622;28;20501;-83
2022/09/29 06:52:53;;;;;;;17.48;4.05;;;;;;;;;;6180422;28;20050;-83
2022/09/29 06:56:05;;;;;;;45.33;5.30;;;;;;;;;;6181466;28;20061;-83
2022/09/29 06:59:07;;;;;;;9.02;2.88;;;;;;;;;;6169409;28;20153;-83
2022/09/29 07:02:10;;;;;;;6.00;3.40;;;;;;;;;;6168851;28;20088;-83
2022/09/29 07:05:12;;;;;;;8.67;3.40;;;;;;;;;;6185225;28;20096;-83
2022/09/29 07:08:13;;;;;;;21.17;4.60;;;;;;;;;;6173168;28;21035;-83
2022/09/29 07:11:15;;;;;;;21.90;4.20;;;;;;;;;;6173230;28;20145;-83
2022/09/29 07:14:21;;;;;;;54.33;6.38;;;;;;;;;;6184436;28;20058;-83
2022/09/29 07:17:23;;;;;;;13.15;4.68;;;;;;;;;;6170695;28;20049;-84
2022/09/29 07:20:26;;;;;;;12.02;4.65;;;;;;;;;;6172170;28;20081;-83
2022/09/29 07:23:27;;;;;;;10.80;4.60;;;;;;;;;;6173232;28;20113;-84
2022/09/29 07:26:29;;;;;;;12.05;4.60;;;;;;;;;;6180355;28;20110;-84
2022/09/29 07:29:33;;;;;;;9.50;4.95;;;;;;;;;;6177351;28;20042;-84
2022/09/29 07:32:35;;;;;;;18.27;6.38;;;;;;;;;;6181340;28;20133;-84
2022/09/29 07:35:37;;;;;;;11.90;5.72;;;;;;;;;;6171076;28;20074;-84
2022/09/29 07:38:40;;;;;;;;;;;;;;;;;;6188598;28;20052;-84
2022/09/29 07:41:42;;;;;;;81.85;7.40;;;;;;;;;;6163376;28;19938;-84
2022/09/29 07:44:44;;;;;;;33.35;8.07;;;;;;;;;;6165836;28;20129;-85
2022/09/29 07:47:51;;;;;;;38.42;8.13;;;;;;;;;;6182954;28;20076;-85
2022/09/29 07:51:03;;;;;;;10.00;5.63;;;;;;;;;;6181259;28;20074;-84
2022/09/29 07:54:08;;;;;;;8.90;4.07;;;;;;;;;;6177668;28;20124;-85
2022/09/29 07:57:09;;;;;;;8.32;4.35;;;;;;;;;;6178915;28;20062;-84
2022/09/29 08:00:11;;;;;;;9.63;4.70;;;;;;;;;;6176222;28;20082;-85
2022/09/29 08:03:13;;;;;;;10.48;5.57;;;;;;;;;;6164187;28;20128;-84
2022/09/29 08:06:15;;;;;;;9.75;5.20;;;;;;;;;;6167972;28;20065;-84
2022/09/29 08:09:16;;;;;;;12.93;5.35;;;;;;;;;;6157927;28;20066;-83
2022/09/29 08:12:20;;;;;;;10.68;4.80;;;;;;;;;;6163315;28;20039;-84
2022/09/29 08:15:23;;;;;;;13.55;5.78;;;;;;;;;;6164875;28;20132;-85
2022/09/29 08:18:26;;;;;;;13.35;5.00;;;;;;;;;;6156854;28;20045;-84
2022/09/29 08:21:30;;;;;;;21.35;5.45;;;;;;;;;;6160679;28;20038;-85
2022/09/29 08:24:35;;;;;;;8.68;4.68;;;;;;;;;;6163859;28;20202;-85
2022/09/29 08:27:37;;;;;;;10.15;5.30;;;;;;;;;;6145939;28;21281;-84
2022/09/29 08:30:53;;;;;;;21.45;5.47;;;;;;;;;;6158923;28;20042;-84
2022/09/29 08:33:59;;;;;;;25.23;6.20;;;;;;;;;;6159665;28;20057;-85
2022/09/29 08:37:01;;;;;;;14.55;6.03;;;;;;;;;;6154826;28;20077;-85
2022/09/29 08:40:03;;;;;;;18.85;6.00;;;;;;;;;;6127932;28;20057;-85
2022/09/29 08:43:11;;;;;;;9.25;4.82;;;;;;;;;;6158913;28;20510;-84
2022/09/29 08:46:25;;;;;;;11.88;5.20;;;;;;;;;;6177810;28;20057;-85
2022/09/29 08:49:40;;;;;;;7.40;4.30;;;;;;;;;;6179525;28;20050;-85
2022/09/29 08:52:46;;;;;;;8.95;4.15;;;;;;;;;;6176944;28;20055;-84
2022/09/29 08:56:02;;;;;;;6.65;4.00;;;;;;;;;;6177592;28;20061;-84
2022/09/29 08:59:04;;;;;;;7.13;4.22;;;;;;;;;;6160269;28;20061;-84
2022/09/29 09:02:42;;;;;;;7.22;3.88;;;;;;;;;;6152647;28;20054;-84
2022/09/29 09:06:08;;;;;;;5.82;3.58;;;;;;;;;;6159132;28;20544;-85
2022/09/29 09:09:37;;;;;;;7.10;4.25;;;;;;;;;;6156206;28;20112;-84
2022/09/29 09:13:07;;;;;;;7.25;4.00;;;;;;;;;;6159722;28;20141;-84
2022/09/29 09:16:23;;;;;;;8.02;4.13;;;;;;;;;;6160751;28;20597;-85
2022/09/29 09:19:46;;;;;;;8.18;4.38;;;;;;;;;;6155691;28;20053;-86
2022/09/29 09:22:55;;;;;;;5.90;3.83;;;;;;;;;;6158666;28;20038;-85
2022/09/29 09:26:00;;;;;;;6.38;3.58;;;;;;;;;;6161471;28;20111;-85
2022/09/29 09:29:12;;;;;;;4.60;3.00;;;;;;;;;;6163120;28;20053;-85
2022/09/29 09:32:23;;;;;;;4.55;2.85;;;;;;;;;;6159990;28;20054;-84
2022/09/29 09:35:27;;;;;;;5.30;3.63;;;;;;;;;;6144812;28;20046;-84
2022/09/29 09:38:47;;;;;;;7.88;5.00;;;;;;;;;;6150661;28;20411;-85
2022/09/29 09:41:51;;;;;;;7.00;4.10;;;;;;;;;;6177807;28;20133;-84
2022/09/29 09:44:59;;;;;;;4.75;3.58;;;;;;;;;;6165277;28;20042;-85
2022/09/29 09:48:30;;;;;;;4.72;3.53;;;;;;;;;;6164098;28;20046;-85
2022/09/29 09:51:50;;;;;;;8.27;3.40;;;;;;;;;;6181338;28;20046;-85
2022/09/29 09:54:55;;;;;;;5.00;3.63;;;;;;;;;;6162432;28;20192;-85
2022/09/29 09:58:07;;;;;;;4.43;3.70;;;;;;;;;;6167821;28;20050;-85
2022/09/29 10:01:11;;;;;;;3.08;2.38;;;;;;;;;;6163125;28;20053;-86
2022/09/29 10:04:13;;;;;;;2.72;2.22;;;;;;;;;;6168496;28;20128;-85
2022/09/29 10:07:16;;;;;;;3.88;2.45;;;;;;;;;;6166001;28;20046;-86
2022/09/29 10:10:24;;;;;;;2.40;2.20;;;;;;;;;;6154264;28;20061;-86
2022/09/29 10:13:29;;;;;;;2.80;2.30;;;;;;;;;;6164465;28;20096;-86
2022/09/29 10:16:40;;;;;;;3.88;2.30;;;;;;;;;;6166156;28;20054;-86
2022/09/29 10:19:58;;;;;;;2.45;2.05;;;;;;;;;;6162946;28;20038;-85
2022/09/29 10:23:18;;;;;;;3.28;1.80;;;;;;;;;;6179311;28;20049;-87
2022/09/29 10:26:24;;;;;;;3.17;1.80;;;;;;;;;;6166066;28;20169;-85
2022/09/29 10:29:41;;;;;;;1.92;1.73;;;;;;;;;;6149758;28;20243;-85
2022/09/29 10:32:44;;;;;;;2.45;1.45;;;;;;;;;;6165996;28;20131;-86
2022/09/29 10:35:48;;;;;;;3.05;1.58;;;;;;;;;;6164744;28;20043;-85
2022/09/29 10:38:51;;;;;;;3.40;1.77;;;;;;;;;;6163532;28;20162;-86
2022/09/29 10:41:53;;;;;;;2.30;1.70;;;;;;;;;;6164952;28;20157;-87
2022/09/29 10:45:12;;;;;;;;;;;;;;;;;;6146715;28;20057;-86
2022/09/29 10:48:15;;;;;;;4.18;1.73;;;;;;;;;;6181031;28;20072;-86
2022/09/29 10:51:24;;;;;;;5.10;1.70;;;;;;;;;;6181508;28;20201;-86
2022/09/29 10:54:28;;;;;;;1.70;1.60;;;;;;;;;;6176572;28;20265;-86
2022/09/29 10:57:32;;;;;;;2.00;1.50;;;;;;;;;;6176137;28;20055;-86
2022/09/29 11:00:37;;;;;;;2.03;1.33;;;;;;;;;;6171287;28;20042;-86
2022/09/29 11:03:46;;;;;;;4.18;2.10;;;;;;;;;;6162043;28;20053;-87
2022/09/29 11:06:49;;;;;;;2.45;1.30;;;;;;;;;;6171905;28;20050;-87
2022/09/29 11:09:53;;;;;;;2.10;1.77;;;;;;;;;;6164710;28;20051;-87
2022/09/29 11:12:59;;;;;;;3.65;1.90;;;;;;;;;;6161229;28;20042;-86
2022/09/29 11:16:15;;;;;;;1.90;1.50;;;;;;;;;;6151193;28;20405;-86
2022/09/29 11:19:17;;;;;;;2.90;1.70;;;;;;;;;;6180822;28;20060;-86
2022/09/29 11:22:45;;;;;;;3.83;1.70;;;;;;;;;;6144234;28;20057;-86
2022/09/29 11:26:06;;;;;;;2.28;2.05;;;;;;;;;;6176813;28;20043;-86
2022/09/29 11:29:14;;;;;;;2.85;2.15;;;;;;;;;;6179757;28;20445;-85
2022/09/29 11:32:31;;;;;;;3.95;2.15;;;;;;;;;;6160025;28;20046;-86
2022/09/29 11:35:45;;;;;;;2.60;1.75;;;;;;;;;;6168721;28;20508;-86
2022/09/29 11:39:13;;;;;;;3.53;2.00;;;;;;;;;;6181741;28;20047;-85
2022/09/29 11:42:21;;;;;;;3.33;2.25;;;;;;;;;;6162889;28;20046;-86
2022/09/29 11:45:34;;;;;;;3.00;2.00;;;;;;;;;;6168623;28;20169;-85
2022/09/29 11:48:42;;;;;;;3.83;2.45;;;;;;;;;;6145700;28;20687;-85
2022/09/29 11:52:08;;;;;;;3.83;2.80;;;;;;;;;;6162526;28;20076;-86
2022/09/29 11:55:16;;;;;;;2.88;2.33;;;;;;;;;;6161088;28;20065;-86
2022/09/29 11:58:30;;;;;;;2.97;2.20;;;;;;;;;;6164479;28;20054;-86
2022/09/29 12:01:54;;;;;;;4.50;2.60;;;;;;;;;;6162112;28;20647;-86
2022/09/29 12:05:23;;;;;;;4.20;2.35;;;;;;;;;;6160543;28;20050;-86
2022/09/29 12:08:28;;;;;;;5.32;2.70;;;;;;;;;;6143535;28;20042;-86
2022/09/29 12:11:51;;;;;;;2.42;2.08;;;;;;;;;;6163298;28;20046;-86
2022/09/29 12:15:28;;;;;;;4.57;2.55;;;;;;;;;;6147965;28;20081;-86
2022/09/29 12:18:52;;;;;;;6.00;2.95;;;;;;;;;;6160492;28;20043;-85
2022/09/29 12:21:58;;;;;;;4.18;2.30;;;;;;;;;;6159748;28;20223;-85
2022/09/29 12:25:01;;;;;;;4.03;2.10;;;;;;;;;;6130221;28;20050;-86
2022/09/29 12:28:18;;;;;;;3.22;2.10;;;;;;;;;;6160361;28;20414;-85
2022/09/29 12:31:36;;;;;;;4.50;1.90;;;;;;;;;;6138594;28;20335;-86
2022/09/29 12:34:50;;;;;;;2.15;1.40;;;;;;;;;;6167095;28;20053;-86
2022/09/29 12:38:19;;;;;;;3.50;1.40;;;;;;;;;;6096240;28;20054;-86
2022/09/29 12:42:25;;;;;;;1.83;1.50;;;;;;;;;;6072046;28;20417;-86
2022/09/29 12:46:10;;;;;;;0.77;0.75;;;;;;;;;;6057884;28;20043;-85
2022/09/29 12:49:49;;;;;;;1.88;0.95;;;;;;;;;;6099444;28;20485;-85
2022/09/29 12:52:59;;;;;;;1.52;1.00;;;;;;;;;;6120781;28;20113;-85
2022/09/29 12:56:20;;;;;;;3.05;1.15;;;;;;;;;;6139769;28;20054;-86
2022/09/29 12:59:22;;;;;;;1.67;1.42;;;;;;;;;;6158203;28;20196;-86
2022/09/29 13:02:52;;;;;;;1.77;1.10;;;;;;;;;;6160976;28;20062;-84
2022/09/29 13:06:03;;;;;;;1.17;0.73;;;;;;;;;;6160119;28;20622;-86
2022/09/29 13:09:29;;;;;;;0.82;0.50;;;;;;;;;;6158549;28;20121;-86
2022/09/29 13:12:55;;;;;;;3.42;0.70;;;;;;;;;;6146824;28;20085;-85
2022/09/29 13:16:27;;;;;;;1.17;0.60;;;;;;;;;;6138305;28;20038;-86
2022/09/29 13:19:42;;;;;;;1.88;0.50;;;;;;;;;;6150053;28;20050;-85
2022/09/29 13:23:18;;;;;;;1.35;0.80;;;;;;;;;;6149133;28;20497;-85
2022/09/29 13:26:47;;;;;;;0.85;0.65;;;;;;;;;;6174091;28;20100;-86
2022/09/29 13:30:10;;;;;;;1.40;0.80;;;;;;;;;;6155817;28;20472;-86
2022/09/29 13:33:25;;;;;;;0.80;0.80;;;;;;;;;;6179125;28;20058;-84
2022/09/29 13:36:35;;;;;;;1.50;1.00;;;;;;;;;;6183490;28;20046;-85
2022/09/29 13:39:40;;;;;;;1.67;1.00;;;;;;;;;;6179390;28;20092;-85
2022/09/29 13:42:44;;;;;;;1.80;0.93;;;;;;;;;;6154677;28;20065;-84
2022/09/29 13:45:46;;;;;;;2.50;0.85;;;;;;;;;;6146956;28;20046;-84
2022/09/29 13:49:01;;;;;;;;;;;;;;;;;;6183745;28;20470;-85
2022/09/29 13:52:29;;;;;;;0.85;0.80;;;;;;;;;;6165128;28;19921;-86
2022/09/29 13:55:55;;;;;;;2.13;1.50;;;;;;;;;;6171472;28;20046;-85
2022/09/29 13:58:59;;;;;;;2.70;1.50;;;;;;;;;;6160813;28;21024;-85
2022/09/29 14:02:32;;;;;;;4.68;2.20;;;;;;;;;;6160629;28;20046;-85
2022/09/29 14:05:40;;;;;;;1.88;1.38;;;;;;;;;;6144742;28;20092;-85
2022/09/29 14:08:50;;;;;;;3.95;1.30;;;;;;;;;;6161384;28;20050;-85
2022/09/29 14:11:55;;;;;;;1.48;1.13;;;;;;;;;;6155123;28;20065;-85
2022/09/29 14:14:59;;;;;;;1.25;1.15;;;;;;;;;;6174766;28;20400;-85
2022/09/29 14:18:13;;;;;;;2.20;1.20;;;;;;;;;;6161975;28;20049;-86
2022/09/29 14:21:47;;;;;;;2.08;1.00;;;;;;;;;;6158040;28;20069;-85
2022/09/29 14:24:50;;;;;;;1.95;1.05;;;;;;;;;;6116774;28;20394;-85
2022/09/29 14:28:30;;;;;;;2.55;1.15;;;;;;;;;;6144948;28;20054;-85
2022/09/29 14:31:33;;;;;;;1.77;1.10;;;;;;;;;;6166970;28;20054;-85
2022/09/29 14:34:38;;;;;;;1.00;1.00;;;;;;;;;;6158698;28;20042;-85
2022/09/29 14:37:42;;;;;;;2.10;1.15;;;;;;;;;;6140804;28;20133;-85
2022/09/29 14:41:31;;;;;;;1.38;1.10;;;;;;;;;;6150161;28;20049;-85
2022/09/29 14:52:00;;;;;;;3.00;1.60;;;;;;;;;;6185207;28;20050;-85
2022/09/29 14:55:18;;;;;;;2.08;1.20;;;;;;;;;;6157763;28;20058;-85
2022/09/29 14:58:37;;;;;;;1.67;1.05;;;;;;;;;;6188414;28;20038;-84
2022/09/29 15:02:00;;;;;;;3.38;1.00;;;;;;;;;;6180203;28;20038;-85
2022/09/29 15:05:14;;;;;;;1.92;1.02;;;;;;;;;;6170585;28;20124;-85
2022/09/29 15:08:28;;;;;;;2.03;1.40;;;;;;;;;;6167172;28;20058;-85
2022/09/29 15:11:36;;;;;;;1.73;0.80;;;;;;;;;;6167669;28;20051;-85
2022/09/29 15:14:38;;;;;;;0.90;0.85;;;;;;;;;;6174912;28;20184;-86
2022/09/29 15:17:45;;;;;;;1.60;1.08;;;;;;;;;;6158443;28;20049;-85
2022/09/29 15:21:24;;;;;;;1.50;0.80;;;;;;;;;;6193982;28;20046;-85
2022/09/29 15:24:49;;;;;;;2.20;0.88;;;;;;;;;;6169401;28;20096;-85
2022/09/29 15:27:53;;;;;;;1.00;0.90;;;;;;;;;;6165100;28;20137;-85
2022/09/29 15:31:08;;;;;;;1.58;0.85;;;;;;;;;;6171418;28;20137;-86
2022/09/29 15:34:17;;;;;;;0.90;0.90;;;;;;;;;;6188633;28;22084;-86
2022/09/29 15:37:21;;;;;;;1.67;1.10;;;;;;;;;;6163241;28;20506;-86
2022/09/29 15:40:26;;;;;;;1.55;0.80;;;;;;;;;;6145272;28;20054;-86
2022/09/29 15:43:40;;;;;;;1.45;0.80;;;;;;;;;;6153551;28;20559;-84
2022/09/29 15:46:56;;;;;;;2.55;0.77;;;;;;;;;;6122296;28;20049;-85
2022/09/29 15:49:58;;;;;;;1.92;0.73;;;;;;;;;;6154533;28;20121;-86
2022/09/29 15:53:01;;;;;;;1.42;0.90;;;;;;;;;;6138292;28;20054;-85
2022/09/29 15:56:05;;;;;;;1.35;0.80;;;;;;;;;;6151944;28;20050;-84
2022/09/29 15:59:17;;;;;;;1.25;0.70;;;;;;;;;;6175605;28;20116;-85
2022/09/29 16:02:37;;;;;;;1.17;0.70;;;;;;;;;;6166389;28;20058;-84
2022/09/29 16:05:44;;;;;;;1.10;0.80;;;;;;;;;;6166498;28;20570;-85
2022/09/29 16:08:49;;;;;;;2.08;1.08;;;;;;;;;;6186243;28;20062;-85
2022/09/29 16:11:51;;;;;;;1.42;1.15;;;;;;;;;;6175214;28;20189;-84
2022/09/29 16:14:57;;;;;;;1.98;0.98;;;;;;;;;;6185330;28;20046;-84
2022/09/29 16:18:01;;;;;;;2.60;1.00;;;;;;;;;;6168807;28;20043;-84
2022/09/29 16:21:08;;;;;;;1.63;0.90;;;;;;;;;;6151626;28;20046;-85
2022/09/29 16:24:19;;;;;;;1.38;1.20;;;;;;;;;;6184398;28;20046;-85
2022/09/29 16:27:42;;;;;;;1.25;1.15;;;;;;;;;;6169588;28;20054;-84
2022/09/29 16:31:00;;;;;;;4.27;1.30;;;;;;;;;;6170674;28;20056;-84
2022/09/29 16:34:02;;;;;;;1.38;1.10;;;;;;;;;;6150731;28;20041;-84
2022/09/29 16:37:14;;;;;;;1.48;1.10;;;;;;;;;;6164854;28;20101;-85
2022/09/29 16:40:24;;;;;;;1.90;0.90;;;;;;;;;;6148571;28;20505;-86
2022/09/29 16:43:30;;;;;;;3.72;1.10;;;;;;;;;;6159029;28;20074;-85
2022/09/29 16:46:33;;;;;;;2.65;2.05;;;;;;;;;;6156224;28;20042;-85
2022/09/29 16:49:57;;;;;;;3.97;3.20;;;;;;;;;;6142904;28;20079;-85
2022/09/29 16:52:59;;;;;;;9.43;5.45;;;;;;;;;;6173229;28;20047;-84
2022/09/29 16:56:36;;;;;;;8.93;6.07;;;;;;;;;;6170556;28;20497;-85
2022/09/29 16:59:37;;;;;;;6.10;4.60;;;;;;;;;;6172807;28;20192;-85
2022/09/29 17:02:39;;;;;;;4.75;4.25;;;;;;;;;;6145499;28;20046;-85
2022/09/29 17:05:46;;;;;;;3.35;2.58;;;;;;;;;;6159829;28;20038;-86
2022/09/29 17:08:50;;;;;;;2.67;1.75;;;;;;;;;;6134190;28;20151;-84
2022/09/29 17:11:53;;;;;;;2.15;1.40;;;;;;;;;;6166607;28;20053;-84
2022/09/29 17:14:56;;;;;;;9.20;6.57;;;;;;;;;;6180228;28;20069;-84
2022/09/29 17:17:57;;;;;;;10.77;7.80;;;;;;;;;;6155836;28;20551;-85
2022/09/29 17:21:00;;;;;;;9.82;7.40;;;;;;;;;;6166936;28;20046;-86
2022/09/29 17:24:04;;;;;;;9.60;7.00;;;;;;;;;;6169245;28;20046;-86
2022/09/29 17:30:29;;;;;;;11.35;7.38;;;;;;;;;;6155506;28;20057;-86
2022/09/29 17:33:31;;;;;;;8.73;5.72;;;;;;;;;;6166299;28;20039;-86
2022/09/29 17:36:35;;;;;;;5.20;3.67;;;;;;;;;;6167752;28;20050;-86
2022/09/29 17:39:37;;;;;;;5.90;3.95;;;;;;;;;;6136058;28;20046;-85
2022/09/29 17:42:39;;;;;;;9.10;6.07;;;;;;;;;;6165421;28;20073;-86
2022/09/29 17:45:42;;;;;;;5.63;4.13;;;;;;;;;;6155635;28;20112;-86
2022/09/29 17:48:44;;;;;;;8.23;6.03;;;;;;;;;;6131761;28;20621;-87
2022/09/29 17:51:46;;;;;;;8.93;5.10;;;;;;;;;;6138154;28;20602;-86
2022/09/29 17:54:48;;;;;;;7.85;5.90;;;;;;;;;;6129491;28;20042;-86
2022/09/29 17:57:52;;;;;;;5.78;4.30;;;;;;;;;;6143451;28;20079;-86
2022/09/29 18:00:56;;;;;;;6.68;3.10;;;;;;;;;;6153383;28;20046;-87
2022/09/29 18:03:59;;;;;;;2.75;2.50;;;;;;;;;;6140891;28;20058;-87
2022/09/29 18:07:01;;;;;;;4.28;3.00;;;;;;;;;;6148729;28;20058;-86
2022/09/29 18:10:17;;;;;;;3.92;3.30;;;;;;;;;;6128955;28;20074;-87
2022/09/29 18:13:21;;;;;;;7.22;5.15;;;;;;;;;;6157764;28;20051;-86
2022/09/29 18:16:23;;;;;;;5.72;5.13;;;;;;;;;;6158746;28;20050;-86
2022/09/29 18:19:27;;;;;;;15.60;7.18;;;;;;;;;;6176499;28;20053;-86
2022/09/29 18:22:29;;;;;;;8.52;6.25;;;;;;;;;;6159621;28;20422;-86
2022/09/29 18:25:32;;;;;;;3.40;2.72;;;;;;;;;;6175265;28;20827;-86
2022/09/29 18:28:34;;;;;;;4.53;2.88;;;;;;;;;;6141334;28;20102;-88
2022/09/29 18:31:36;;;;;;;6.05;3.22;;;;;;;;;;6155476;28;20062;-86
2022/09/29 18:34:44;;;;;;;3.58;3.22;;;;;;;;;;6162646;28;20601;-85
2022/09/29 18:37:50;;;;;;;9.40;6.65;;;;;;;;;;6158220;28;20042;-83
2022/09/29 18:40:55;;;;;;;9.68;6.88;;;;;;;;;;6181209;28;20054;-85
2022/09/29 18:43:58;;;;;;;9.43;6.47;;;;;;;;;;6153203;28;20049;-84
2022/09/29 18:47:00;;;;;;;10.48;5.95;;;;;;;;;;6149468;28;20038;-85
2022/09/29 18:50:06;;;;;;;13.80;6.70;;;;;;;;;;6152013;28;20066;-85
2022/09/29 18:53:13;;;;;;;18.08;8.57;;;;;;;;;;6171790;28;20149;-84
2022/09/29 18:56:16;;;;;;;12.80;7.45;;;;;;;;;;6163753;28;20553;-85